createdAt,value
2022-12-11T00:00:29.488Z,99.50
2022-12-11T00:02:57.081Z,99.40
2022-12-11T00:05:24.447Z,99.60
2022-12-11T00:07:51.812Z,99.30
2022-12-11T00:10:20.114Z,99.40
2022-12-11T00:12:47.410Z,99.90
2022-12-11T00:15:14.764Z,99.40
2022-12-11T00:17:42.100Z,99.70
2022-12-11T00:20:09.893Z,99.70
2022-12-11T00:22:37.266Z,99.60
2022-12-11T00:25:04.989Z,99.40
2022-12-11T00:27:32.397Z,99.50
2022-12-11T00:30:00.292Z,99.50
2022-12-11T00:32:28.553Z,99.90
2022-12-11T00:34:56.177Z,99.80
2022-12-11T00:37:24.047Z,99.90
2022-12-11T00:39:51.484Z,99.80
2022-12-11T00:42:18.836Z,99.80
2022-12-11T00:44:46.173Z,99.50
2022-12-11T00:47:13.453Z,99.50
2022-12-11T00:49:45.108Z,99.50
2022-12-11T00:52:17.942Z,99.40
2022-12-11T00:54:45.570Z,99.90
2022-12-11T00:57:12.900Z,99.60
2022-12-11T00:59:40.310Z,99.50
2022-12-11T01:02:07.638Z,99.50
2022-12-11T01:04:36.759Z,99.90
2022-12-11T01:07:04.129Z,99.90
2022-12-11T01:09:49.985Z,99.40
2022-12-11T01:12:17.283Z,99.20
2022-12-11T01:14:44.640Z,99.40
2022-12-11T01:17:11.954Z,99.60
2022-12-11T01:19:39.279Z,99.30
2022-12-11T01:22:06.572Z,99.40
2022-12-11T01:24:34.022Z,99.40
2022-12-11T01:27:01.333Z,99.40
2022-12-11T01:29:28.618Z,99.30
2022-12-11T01:31:55.903Z,99.40
2022-12-11T01:34:23.216Z,99.50
2022-12-11T01:36:52.379Z,99.20
2022-12-11T01:39:19.670Z,99.90
2022-12-11T01:41:47.086Z,99.30
2022-12-11T01:44:14.673Z,99.40
2022-12-11T01:46:43.090Z,99.30
2022-12-11T01:49:15.181Z,99.50
2022-12-11T01:51:49.840Z,99.90
2022-12-11T01:54:19.176Z,99.90
2022-12-11T01:56:48.219Z,99.70
2022-12-11T01:59:20.687Z,99.60
2022-12-11T02:01:54.343Z,99.90
2022-12-11T02:04:22.159Z,99.90
2022-12-11T02:06:51.975Z,99.40
2022-12-11T02:09:23.772Z,99.80
2022-12-11T02:12:04.553Z,99.90
2022-12-11T02:14:40.701Z,99.90
2022-12-11T02:17:23.471Z,99.90
2022-12-11T02:20:10.016Z,99.90
2022-12-11T02:22:59.519Z,99.90
2022-12-11T02:26:06.598Z,99.90
2022-12-11T02:28:49.002Z,99.90
2022-12-11T02:31:16.232Z,99.90
2022-12-11T02:33:55.193Z,99.30
2022-12-11T02:36:26.406Z,99.90
2022-12-11T02:38:56.974Z,99.90
2022-12-11T02:41:25.831Z,99.90
2022-12-11T02:43:55.368Z,99.80
2022-12-11T02:46:24.466Z,99.90
2022-12-11T02:48:53.793Z,99.70
2022-12-11T02:51:26.878Z,99.90
2022-12-11T02:53:58.054Z,99.90
2022-12-11T02:56:38.221Z,99.90
2022-12-11T02:59:13.104Z,99.90
2022-12-11T03:01:40.495Z,99.90
2022-12-11T03:04:08.002Z,99.70
2022-12-11T03:06:48.418Z,99.40
2022-12-11T03:09:15.847Z,99.90
2022-12-11T03:11:43.136Z,99.20
2022-12-11T03:14:11.413Z,99.30
2022-12-11T03:16:47.157Z,99.40
2022-12-11T03:19:41.435Z,99.80
2022-12-11T03:22:10.592Z,99.90
2022-12-11T03:25:02.631Z,99.20
2022-12-11T03:27:50.640Z,99.90
2022-12-11T03:30:20.364Z,99.90
2022-12-11T03:33:02.931Z,99.80
2022-12-11T03:35:34.853Z,99.90
2022-12-11T03:38:06.894Z,98.90
2022-12-11T03:40:36.111Z,99.90
2022-12-11T03:43:05.973Z,99.90
2022-12-11T03:45:34.692Z,99.90
2022-12-11T03:48:03.202Z,99.50
2022-12-11T03:50:32.616Z,99.70
2022-12-11T03:53:01.606Z,99.60
2022-12-11T03:55:30.387Z,99.60
2022-12-11T03:57:57.777Z,99.70
2022-12-11T04:00:25.169Z,99.20
2022-12-11T04:03:13.664Z,99.20
2022-12-11T04:05:47.632Z,98.80
2022-12-11T04:08:16.265Z,99.90
2022-12-11T04:10:43.977Z,99.40
2022-12-11T04:13:11.759Z,99.40
2022-12-11T04:15:40.090Z,99.30
2022-12-11T04:18:26.809Z,99.70
2022-12-11T04:21:14.163Z,99.30
2022-12-11T04:23:59.980Z,99.60
2022-12-11T04:26:27.416Z,99.30
2022-12-11T04:28:54.746Z,99.10
2022-12-11T04:31:22.946Z,99.10
2022-12-11T04:33:50.356Z,99.30
2022-12-11T04:36:17.659Z,99.10
2022-12-11T04:38:44.962Z,99.40
2022-12-11T04:41:14.604Z,99.00
2022-12-11T04:43:45.266Z,99.90
2022-12-11T04:46:18.569Z,99.20
2022-12-11T04:48:46.691Z,99.50
2022-12-11T04:51:14.744Z,99.60
2022-12-11T04:53:42.525Z,99.60
2022-12-11T04:56:11.959Z,99.00
2022-12-11T04:58:40.719Z,99.50
2022-12-11T05:01:19.456Z,99.30
2022-12-11T05:03:47.235Z,99.00
2022-12-11T05:06:14.704Z,99.10
2022-12-11T05:08:43.288Z,99.10
2022-12-11T05:11:13.093Z,99.60
2022-12-11T05:13:40.910Z,99.60
2022-12-11T05:16:12.530Z,99.60
2022-12-11T05:18:40.127Z,99.90
2022-12-11T05:21:09.855Z,99.20
2022-12-11T05:23:37.258Z,99.70
2022-12-11T05:26:07.445Z,99.30
2022-12-11T05:28:36.935Z,99.90
2022-12-11T05:31:18.654Z,99.60
2022-12-11T05:33:46.864Z,99.70
2022-12-11T05:36:21.228Z,99.40
2022-12-11T05:38:48.782Z,99.50
2022-12-11T05:41:19.999Z,99.10
2022-12-11T05:43:47.409Z,99.70
2022-12-11T05:46:16.854Z,99.00
2022-12-11T05:48:46.165Z,99.20
2022-12-11T05:51:15.360Z,99.40
2022-12-11T05:53:43.958Z,99.60
2022-12-11T05:56:20.631Z,99.60
2022-12-11T05:58:48.859Z,99.40
2022-12-11T06:01:20.745Z,99.60
2022-12-11T06:03:48.099Z,99.70
2022-12-11T06:06:15.866Z,99.50
2022-12-11T06:08:43.430Z,99.20
2022-12-11T06:11:13.279Z,99.10
2022-12-11T06:13:40.871Z,99.50
2022-12-11T06:16:10.175Z,99.10
2022-12-11T06:18:45.071Z,99.30
2022-12-11T06:21:17.971Z,99.90
2022-12-11T06:23:47.564Z,99.20
2022-12-11T06:26:16.635Z,99.80
2022-12-11T06:28:44.091Z,99.60
2022-12-11T06:31:11.880Z,98.90
2022-12-11T06:33:40.073Z,99.50
2022-12-11T06:36:10.687Z,99.00
2022-12-11T06:38:38.737Z,99.50
2022-12-11T06:41:07.726Z,98.80
2022-12-11T06:43:36.370Z,99.80
2022-12-11T06:46:05.526Z,99.20
2022-12-11T06:48:33.171Z,99.40
2022-12-11T06:51:04.530Z,99.00
2022-12-11T06:53:31.952Z,98.90
2022-12-11T06:56:07.500Z,99.10
2022-12-11T06:58:36.219Z,99.80
2022-12-11T07:01:04.873Z,99.30
2022-12-11T07:03:32.270Z,99.20
2022-12-11T07:06:03.386Z,98.80
2022-12-11T07:08:32.014Z,99.90
2022-12-11T07:11:08.542Z,98.90
2022-12-11T07:13:36.496Z,99.50
2022-12-11T07:16:05.791Z,99.10
2022-12-11T07:18:33.133Z,99.10
2022-12-11T07:21:00.648Z,98.90
2022-12-11T07:23:28.885Z,99.10
2022-12-11T07:25:56.627Z,99.30
2022-12-11T07:28:24.111Z,99.10
2022-12-11T07:30:51.500Z,99.00
2022-12-11T07:33:18.846Z,98.90
2022-12-11T07:35:46.179Z,98.80
2022-12-11T07:38:13.499Z,99.10
2022-12-11T07:40:41.006Z,99.40
2022-12-11T07:43:08.344Z,98.90
2022-12-11T07:45:35.727Z,98.80
2022-12-11T07:48:03.311Z,98.80
2022-12-11T07:50:32.889Z,98.90
2022-12-11T07:53:03.922Z,99.00
2022-12-11T07:55:32.256Z,98.80
2022-12-11T07:57:59.603Z,99.20
2022-12-11T08:00:26.943Z,98.80
2022-12-11T08:02:54.350Z,99.00
2022-12-11T08:05:22.631Z,99.40
2022-12-11T08:07:50.052Z,98.80
2022-12-11T08:10:17.666Z,98.70
2022-12-11T08:12:44.966Z,98.90
2022-12-11T08:15:12.473Z,98.80
2022-12-11T08:17:40.440Z,99.10
2022-12-11T08:20:08.611Z,98.80
2022-12-11T08:22:36.269Z,98.90
2022-12-11T08:25:03.833Z,98.70
2022-12-11T08:27:31.396Z,98.70
2022-12-11T08:29:58.698Z,98.70
2022-12-11T08:32:26.005Z,98.70
2022-12-11T08:34:53.384Z,98.60
2022-12-11T08:37:20.691Z,98.70
2022-12-11T08:39:49.117Z,98.60
2022-12-11T08:42:16.695Z,98.60
2022-12-11T08:44:44.020Z,99.10
2022-12-11T08:47:11.404Z,98.50
2022-12-11T08:49:38.757Z,98.70
2022-12-11T08:52:06.275Z,98.90
2022-12-11T08:54:33.753Z,98.70
2022-12-11T08:57:01.088Z,98.80
2022-12-11T08:59:28.629Z,98.70
2022-12-11T09:01:56.627Z,98.70
2022-12-11T09:04:24.050Z,99.10
2022-12-11T09:06:51.344Z,98.60
2022-12-11T09:09:18.803Z,99.30
2022-12-11T09:11:46.465Z,98.70
2022-12-11T09:14:13.934Z,98.70
2022-12-11T09:16:41.769Z,98.70
2022-12-11T09:19:13.748Z,98.70
2022-12-11T09:21:42.844Z,99.40
2022-12-11T09:24:11.640Z,99.50
2022-12-11T09:26:40.071Z,99.60
2022-12-11T09:29:07.783Z,98.90
2022-12-11T09:31:36.652Z,99.00
2022-12-11T09:34:07.529Z,99.70
2022-12-11T09:36:35.594Z,99.90
2022-12-11T09:39:05.838Z,99.00
2022-12-11T09:41:37.623Z,99.30
2022-12-11T09:44:24.150Z,99.40
2022-12-11T09:46:52.169Z,98.20
2022-12-11T09:49:37.598Z,99.00
2022-12-11T09:52:18.739Z,99.10
2022-12-11T09:55:16.706Z,99.20
2022-12-11T09:58:10.324Z,99.30
2022-12-11T10:00:40.865Z,99.50
2022-12-11T10:03:26.951Z,99.60
2022-12-11T10:06:23.152Z,98.20
2022-12-11T10:09:08.794Z,99.20
2022-12-11T10:11:57.999Z,99.20
2022-12-11T10:14:51.757Z,99.30
2022-12-11T10:17:31.289Z,98.90
2022-12-11T10:20:05.792Z,99.20
2022-12-11T10:22:33.977Z,99.00
2022-12-11T10:25:12.844Z,98.60
2022-12-11T10:27:41.499Z,99.50
2022-12-11T10:30:18.439Z,98.80
2022-12-11T10:33:20.644Z,99.00
2022-12-11T10:35:54.843Z,99.10
2022-12-11T10:38:28.391Z,98.70
2022-12-11T10:41:02.500Z,99.20
2022-12-11T10:43:38.508Z,98.70
2022-12-11T10:46:12.886Z,99.30
2022-12-11T10:48:55.438Z,98.90
2022-12-11T10:51:25.613Z,99.30
2022-12-11T10:53:55.370Z,99.30
2022-12-11T10:56:31.500Z,99.00
2022-12-11T10:59:00.490Z,99.10
2022-12-11T11:01:32.550Z,98.50
2022-12-11T11:04:15.166Z,99.10
2022-12-11T11:06:42.541Z,98.70
2022-12-11T11:09:42.171Z,98.30
2022-12-11T11:12:29.049Z,99.50
2022-12-11T11:15:13.952Z,99.30
2022-12-11T11:17:54.605Z,98.80
2022-12-11T11:20:26.756Z,99.30
2022-12-11T11:22:56.840Z,98.80
2022-12-11T11:25:26.347Z,98.70
2022-12-11T11:28:06.257Z,98.60
2022-12-11T11:30:42.441Z,98.40
2022-12-11T11:33:23.990Z,99.20
2022-12-11T11:36:01.637Z,98.80
2022-12-11T11:38:41.227Z,98.40
2022-12-11T11:41:15.760Z,98.70
2022-12-11T11:43:47.490Z,99.00
2022-12-11T11:46:33.408Z,98.80
2022-12-11T11:49:12.815Z,98.50
2022-12-11T11:51:45.462Z,97.80
2022-12-11T11:54:34.564Z,99.10
2022-12-11T11:57:12.481Z,98.80
2022-12-11T11:59:56.559Z,99.00
2022-12-11T12:02:24.018Z,99.20
2022-12-11T12:04:51.966Z,99.00
2022-12-11T12:07:45.219Z,98.20
2022-12-11T12:10:56.713Z,99.30
2022-12-11T12:13:50.595Z,99.20
2022-12-11T12:16:52.180Z,99.00
2022-12-11T12:19:41.285Z,98.80
2022-12-11T12:22:47.838Z,99.00
2022-12-11T12:25:51.361Z,99.00
2022-12-11T12:29:05.231Z,98.90
2022-12-11T12:31:35.574Z,99.00
2022-12-11T12:34:17.993Z,97.70
2022-12-11T12:36:51.004Z,99.30
2022-12-11T12:39:21.683Z,98.50
2022-12-11T12:42:14.200Z,99.00
2022-12-11T12:45:19.305Z,98.50
2022-12-11T12:47:53.176Z,98.40
2022-12-11T12:50:25.219Z,99.50
2022-12-11T12:52:54.306Z,99.70
2022-12-11T12:55:24.942Z,98.30
2022-12-11T12:58:00.603Z,99.00
2022-12-11T13:00:29.300Z,99.30
2022-12-11T13:02:57.764Z,98.70
2022-12-11T13:05:34.455Z,98.80
2022-12-11T13:08:05.455Z,99.20
2022-12-11T13:10:36.205Z,98.20
2022-12-11T13:13:05.937Z,98.60
2022-12-11T13:15:40.755Z,98.70
2022-12-11T13:18:35.875Z,99.20
2022-12-11T13:21:35.178Z,98.90
2022-12-11T13:24:21.069Z,98.60
2022-12-11T13:26:50.126Z,99.00
2022-12-11T13:29:37.741Z,98.20
2022-12-11T13:32:08.221Z,99.10
2022-12-11T13:34:39.278Z,98.70
2022-12-11T13:37:20.636Z,98.50
2022-12-11T13:39:48.100Z,98.10
2022-12-11T13:42:48.337Z,97.70
2022-12-11T13:45:44.061Z,98.80
2022-12-11T13:48:29.504Z,98.80
2022-12-11T13:50:59.084Z,98.90
2022-12-11T13:53:26.460Z,98.50
2022-12-11T13:56:06.345Z,97.60
2022-12-11T13:58:37.964Z,98.50
2022-12-11T14:01:15.908Z,98.60
2022-12-11T14:04:01.402Z,99.30
2022-12-11T14:06:31.213Z,98.60
2022-12-11T14:09:01.528Z,98.50
2022-12-11T14:11:37.072Z,98.60
2022-12-11T14:14:15.296Z,98.70
2022-12-11T14:16:43.585Z,98.80
2022-12-11T14:19:17.664Z,98.20
2022-12-11T14:21:59.265Z,98.50
2022-12-11T14:24:27.080Z,98.40
2022-12-11T14:26:55.453Z,98.20
2022-12-11T14:29:32.853Z,98.00
2022-12-11T14:32:04.703Z,98.30
2022-12-11T14:34:37.024Z,98.60
2022-12-11T14:37:07.871Z,97.30
2022-12-11T14:39:40.987Z,98.60
2022-12-11T14:42:13.912Z,98.50
2022-12-11T14:45:00.580Z,98.50
2022-12-11T14:47:32.624Z,98.40
2022-12-11T14:50:13.179Z,98.40
2022-12-11T14:52:47.227Z,98.90
2022-12-11T14:55:28.671Z,98.40
2022-12-11T14:58:21.236Z,98.20
2022-12-11T15:01:06.704Z,98.40
2022-12-11T15:03:39.461Z,98.70
2022-12-11T15:06:24.556Z,98.50
2022-12-11T15:08:53.679Z,98.60
2022-12-11T15:11:21.986Z,97.90
2022-12-11T15:13:53.295Z,98.00
2022-12-11T15:16:23.199Z,97.20
2022-12-11T15:18:53.001Z,98.30
2022-12-11T15:21:29.717Z,98.00
2022-12-11T15:23:59.884Z,98.70
2022-12-11T15:26:39.011Z,98.10
2022-12-11T15:29:37.134Z,98.50
2022-12-11T15:32:14.093Z,98.40
2022-12-11T15:34:48.829Z,98.30
2022-12-11T15:37:23.823Z,98.50
2022-12-11T15:39:53.593Z,98.20
2022-12-11T15:42:44.171Z,98.40
2022-12-11T15:45:23.477Z,98.70
2022-12-11T15:47:52.049Z,98.40
2022-12-11T15:50:25.356Z,98.10
2022-12-11T15:52:54.337Z,97.90
2022-12-11T15:55:23.304Z,98.20
2022-12-11T15:57:55.040Z,97.70
2022-12-11T16:00:23.992Z,98.20
2022-12-11T16:02:52.210Z,97.70
2022-12-11T16:05:19.966Z,97.50
2022-12-11T16:07:48.884Z,97.60
2022-12-11T16:10:17.808Z,98.00
2022-12-11T16:12:45.719Z,97.70
2022-12-11T16:15:21.496Z,97.50
2022-12-11T16:17:59.512Z,97.80
2022-12-11T16:20:26.803Z,97.50
2022-12-11T16:22:54.246Z,97.60
2022-12-11T16:25:21.662Z,98.00
2022-12-11T16:27:50.337Z,97.60
2022-12-11T16:30:17.885Z,97.40
2022-12-11T16:32:45.288Z,97.80
2022-12-11T16:35:13.228Z,97.60
2022-12-11T16:37:40.854Z,97.30
2022-12-11T16:40:09.324Z,97.40
2022-12-11T16:42:38.199Z,97.80
2022-12-11T16:45:12.429Z,97.90
2022-12-11T16:47:40.068Z,97.90
2022-12-11T16:50:08.168Z,97.30
2022-12-11T16:52:35.453Z,97.70
2022-12-11T16:55:03.304Z,97.40
2022-12-11T16:57:30.752Z,97.70
2022-12-11T16:59:58.360Z,97.60
2022-12-11T17:02:25.874Z,97.40
2022-12-11T17:04:54.117Z,97.30
2022-12-11T17:07:21.571Z,97.40
2022-12-11T17:09:48.930Z,97.40
2022-12-11T17:12:16.341Z,97.90
2022-12-11T17:14:44.220Z,97.70
2022-12-11T17:17:11.547Z,98.00
2022-12-11T17:19:38.792Z,97.80
2022-12-11T17:22:06.114Z,97.90
2022-12-11T17:24:33.600Z,97.30
2022-12-11T17:27:01.124Z,97.80
2022-12-11T17:29:28.628Z,97.40
2022-12-11T17:31:55.965Z,97.70
2022-12-11T17:34:23.310Z,97.60
2022-12-11T17:36:51.410Z,97.60
2022-12-11T17:39:20.167Z,97.80
2022-12-11T17:41:47.520Z,97.10
2022-12-11T17:44:14.863Z,97.60
2022-12-11T17:46:43.222Z,98.10
2022-12-11T17:49:10.781Z,97.30
2022-12-11T17:51:38.241Z,97.30
2022-12-11T17:54:05.640Z,97.50
2022-12-11T17:56:34.899Z,97.70
2022-12-11T17:59:02.842Z,97.40
2022-12-11T18:01:30.296Z,97.40
2022-12-11T18:04:01.413Z,97.30
2022-12-11T18:06:29.991Z,97.70
2022-12-11T18:08:57.845Z,98.00
2022-12-11T18:11:25.682Z,97.60
2022-12-11T18:13:53.752Z,97.50
2022-12-11T18:16:24.665Z,97.60
2022-12-11T18:18:52.622Z,97.90
2022-12-11T18:21:26.330Z,97.30
2022-12-11T18:23:54.468Z,98.30
2022-12-11T18:26:22.329Z,97.50
2022-12-11T18:28:50.930Z,97.30
2022-12-11T18:31:19.997Z,97.60
2022-12-11T18:33:47.705Z,97.40
2022-12-11T18:36:18.211Z,97.80
2022-12-11T18:38:46.289Z,98.00
2022-12-11T18:41:14.887Z,97.50
2022-12-11T18:43:42.867Z,97.40
2022-12-11T18:48:57.634Z,96.70
2022-12-11T18:51:25.775Z,97.50
2022-12-11T18:53:53.566Z,97.10
2022-12-11T18:56:23.044Z,98.20
2022-12-11T18:58:51.124Z,97.40
2022-12-11T19:01:26.889Z,99.00
2022-12-11T19:04:04.268Z,99.00
2022-12-11T19:06:41.113Z,98.00
2022-12-11T19:09:14.150Z,99.90
2022-12-11T19:11:42.283Z,97.20
2022-12-11T19:14:10.751Z,98.40
2022-12-11T19:16:41.320Z,97.80
2022-12-11T19:19:13.189Z,97.70
2022-12-11T19:21:41.623Z,97.90
2022-12-11T19:24:11.747Z,97.30
2022-12-11T19:26:39.123Z,97.50
2022-12-11T19:29:06.823Z,97.10
2022-12-11T19:31:34.632Z,97.20
2022-12-11T19:34:03.020Z,97.10
2022-12-11T19:36:31.748Z,97.40
2022-12-11T19:39:01.758Z,97.90
2022-12-11T19:41:30.754Z,97.20
2022-12-11T19:43:59.500Z,97.60
2022-12-11T19:46:28.931Z,97.60
2022-12-11T19:48:58.294Z,97.60
2022-12-11T19:51:33.948Z,97.70
2022-12-11T19:54:04.891Z,98.10
2022-12-11T19:56:33.135Z,97.40
2022-12-11T19:59:03.042Z,97.40
2022-12-11T20:01:32.370Z,98.30
2022-12-11T20:04:02.617Z,97.60
2022-12-11T20:06:32.115Z,97.80
2022-12-11T20:09:00.149Z,97.60
2022-12-11T20:11:35.942Z,97.20
2022-12-11T20:14:03.937Z,99.60
2022-12-11T20:17:08.694Z,98.90
2022-12-11T20:19:19.457Z,98.10
2022-12-11T20:21:46.993Z,98.60
2022-12-11T20:24:15.490Z,98.40
2022-12-11T20:26:46.180Z,97.80
2022-12-11T20:29:14.248Z,99.50
2022-12-11T20:31:47.981Z,98.90
2022-12-11T20:34:18.934Z,99.40
2022-12-11T20:36:49.619Z,98.20
2022-12-11T20:39:17.234Z,99.10
2022-12-11T20:41:44.672Z,98.90
2022-12-11T20:44:12.096Z,97.30
2022-12-11T20:46:39.458Z,97.50
2022-12-11T20:49:12.708Z,97.60
2022-12-11T20:51:41.217Z,97.50
2022-12-11T20:54:08.679Z,97.40
2022-12-11T20:56:38.382Z,97.10
2022-12-11T20:59:19.665Z,99.90
2022-12-11T21:01:52.000Z,99.90
2022-12-11T21:04:52.860Z,97.30
2022-12-11T21:07:38.370Z,99.60
2022-12-11T21:10:14.235Z,98.00
2022-12-11T21:12:42.123Z,99.10
2022-12-11T21:15:12.185Z,97.80
2022-12-11T21:17:42.566Z,97.00
2022-12-11T21:20:11.352Z,97.80
2022-12-11T21:22:38.925Z,99.20
2022-12-11T21:25:08.209Z,98.10
2022-12-11T21:27:36.853Z,98.60
2022-12-11T21:30:05.966Z,98.80
2022-12-11T21:32:35.738Z,97.60
2022-12-11T21:35:04.199Z,98.70
2022-12-11T21:37:31.961Z,98.10
2022-12-11T21:40:00.304Z,98.30
2022-12-11T21:42:28.074Z,98.00
2022-12-11T21:45:37.490Z,98.80
2022-12-11T21:47:43.902Z,98.80
2022-12-11T21:50:14.531Z,97.70
2022-12-11T21:52:43.375Z,97.10
2022-12-11T21:55:12.428Z,98.60
2022-12-11T21:57:40.576Z,97.80
2022-12-11T22:00:09.494Z,98.60
2022-12-11T22:02:41.336Z,97.80
2022-12-11T22:05:09.862Z,98.10
2022-12-11T22:07:37.519Z,97.80
2022-12-11T22:10:06.014Z,98.00
2022-12-11T22:12:33.928Z,97.40
2022-12-11T22:15:01.992Z,98.50
2022-12-11T22:17:29.910Z,98.60
2022-12-11T22:19:57.970Z,98.00
2022-12-11T22:22:29.299Z,97.70
2022-12-11T22:24:57.849Z,98.30
2022-12-11T22:27:26.285Z,98.50
2022-12-11T22:29:54.570Z,98.30
2022-12-11T22:32:21.990Z,97.80
2022-12-11T22:34:49.380Z,97.40
2022-12-11T22:37:16.728Z,97.30
2022-12-11T22:39:44.035Z,97.10
2022-12-11T22:42:11.423Z,97.10
2022-12-11T22:44:39.873Z,97.00
2022-12-11T22:47:07.450Z,97.80
2022-12-11T22:49:36.091Z,97.40
2022-12-11T22:52:03.758Z,97.90
2022-12-11T22:54:31.053Z,97.10
2022-12-11T22:56:58.832Z,97.10
2022-12-11T22:59:26.240Z,97.00
2022-12-11T23:01:53.596Z,97.50
2022-12-11T23:04:20.979Z,97.30
2022-12-11T23:06:48.503Z,97.60
2022-12-11T23:09:16.107Z,97.30
2022-12-11T23:11:43.609Z,97.60
2022-12-11T23:14:15.645Z,97.10
2022-12-11T23:16:44.240Z,97.90
2022-12-11T23:19:12.964Z,97.60
2022-12-11T23:21:40.789Z,97.80
2022-12-11T23:24:09.040Z,98.10
2022-12-11T23:26:40.405Z,98.00
2022-12-11T23:29:08.440Z,97.50
2022-12-11T23:31:36.320Z,97.50
2022-12-11T23:34:04.160Z,97.10
2022-12-11T23:36:31.740Z,97.30
2022-12-11T23:38:59.198Z,97.10
2022-12-11T23:41:26.569Z,97.60
2022-12-11T23:43:57.747Z,97.20
2022-12-11T23:46:25.722Z,98.20
2022-12-11T23:48:53.966Z,98.00
2022-12-11T23:51:23.563Z,97.80
2022-12-11T23:53:51.633Z,97.70
2022-12-11T23:56:28.119Z,97.70
2022-12-11T23:58:56.282Z,97.80
